Time,TemperatureF,DewpointF,PressureIn,WindDirection,WindDirectionDegrees,WindSpeedMPH,WindSpeedGustMPH,Humidity,HourlyPrecipIn,Conditions,Clouds,dailyrainin,SoftwareType,DateUTC
2013-07-01 00:05:00,68.1,65.7,29.81,West,279,0.0,0.0,92,0.00,,,0.00,Wunderground v.1.15,2013-07-01 04:05:00,
2013-07-01 01:05:00,-999.9,-99.9,29.81,North,32767,-999.0,0.0,255,-99.99,,,0.00,Wunderground v.1.15,2013-07-01 05:05:00,
2013-07-01 01:36:00,-999.9,-99.9,29.81,North,32767,-999.0,0.0,255,-99.99,,,0.00,Wunderground v.1.15,2013-07-01 05:36:00,
2013-07-01 01:46:00,-999.9,-99.9,29.81,North,32767,-999.0,0.0,255,-99.99,,,0.00,Wunderground v.1.15,2013-07-01 05:46:00,
2013-07-01 01:55:00,-999.9,-99.9,29.81,North,32767,-999.0,0.0,255,-99.99,,,0.00,Wunderground v.1.15,2013-07-01 05:55:00,
2013-07-01 02:15:00,-999.9,-99.9,29.82,North,32767,-999.0,0.0,255,-99.99,,,0.00,Wunderground v.1.15,2013-07-01 06:15:00,
2013-07-01 03:36:00,-999.9,-99.9,29.81,North,32767,-999.0,0.0,255,-99.99,,,0.00,Wunderground v.1.15,2013-07-01 07:36:00,
2013-07-01 03:56:00,-999.9,-99.9,29.82,North,32767,-999.0,0.0,255,-99.99,,,0.00,Wunderground v.1.15,2013-07-01 07:56:00,
2013-07-01 05:06:00,-999.9,-99.9,29.84,North,32767,-999.0,0.0,255,-99.99,,,0.00,Wunderground v.1.15,2013-07-01 09:06:00,
2013-07-01 05:16:00,-999.9,-99.9,29.85,North,32767,-999.0,0.0,255,-99.99,,,0.00,Wunderground v.1.15,2013-07-01 09:16:00,
2013-07-01 05:25:00,-999.9,-99.9,29.85,North,32767,-999.0,0.0,255,-99.99,,,0.00,Wunderground v.1.15,2013-07-01 09:25:00,
2013-07-01 06:06:00,-999.9,-99.9,29.86,North,32767,-999.0,0.0,255,-99.99,,,0.00,Wunderground v.1.15,2013-07-01 10:06:00,
2013-07-01 06:15:00,-999.9,-99.9,29.87,North,32767,-999.0,0.0,255,-99.99,,,0.00,Wunderground v.1.15,2013-07-01 10:15:00,
2013-07-01 06:36:00,-999.9,-99.9,29.87,North,32767,-999.0,0.0,255,-99.99,,,0.00,Wunderground v.1.15,2013-07-01 10:36:00,
2013-07-01 06:46:00,-999.9,-99.9,29.88,North,32767,-999.0,0.0,255,-99.99,,,0.00,Wunderground v.1.15,2013-07-01 10:46:00,
2013-07-01 07:36:00,-999.9,-99.9,29.90,North,32767,-999.0,0.0,255,-99.99,,,0.00,Wunderground v.1.15,2013-07-01 11:36:00,
2013-07-01 07:46:00,-999.9,-99.9,29.90,North,32767,-999.0,0.0,255,-99.99,,,0.00,Wunderground v.1.15,2013-07-01 11:46:00,
2013-07-01 07:56:00,-999.9,-99.9,29.90,North,32767,-999.0,0.0,255,-99.99,,,0.00,Wunderground v.1.15,2013-07-01 11:56:00,
2013-07-01 08:16:00,-999.9,-99.9,29.90,North,32767,-999.0,0.0,255,-99.99,,,0.00,Wunderground v.1.15,2013-07-01 12:16:00,
2013-07-01 09:36:00,72.0,65.1,29.91,West,279,0.0,0.0,79,0.00,,,0.00,Wunderground v.1.15,2013-07-01 13:36:00,
2013-07-01 10:16:00,72.1,65.9,29.92,West,279,1.0,1.0,81,0.00,,,0.00,Wunderground v.1.15,2013-07-01 14:16:00,
2013-07-01 10:35:00,72.3,67.2,29.93,West,279,0.0,2.0,84,0.00,,,0.00,Wunderground v.1.15,2013-07-01 14:35:00,
2013-07-01 10:45:00,72.1,66.6,29.93,West,279,1.0,1.0,83,0.00,,,0.00,Wunderground v.1.15,2013-07-01 14:45:00,
2013-07-01 11:35:00,72.3,67.2,29.95,West,279,0.0,0.0,84,0.00,,,0.00,Wunderground v.1.15,2013-07-01 15:35:00,
2013-07-01 11:46:00,72.3,67.2,29.95,West,279,0.0,0.0,84,0.00,,,0.00,Wunderground v.1.15,2013-07-01 15:46:00,
2013-07-01 12:06:00,72.8,68.0,29.95,West,279,0.0,1.0,85,0.00,,,0.00,Wunderground v.1.15,2013-07-01 16:06:00,
2013-07-01 12:25:00,73.0,67.9,29.94,West,279,0.0,0.0,84,0.00,,,0.00,Wunderground v.1.15,2013-07-01 16:25:00,
2013-07-01 13:06:00,73.9,68.1,29.94,West,279,0.0,0.0,82,0.00,,,0.00,Wunderground v.1.15,2013-07-01 17:06:00,
2013-07-01 13:56:00,74.0,67.1,29.93,SE,144,2.0,2.0,79,0.00,,,0.00,Wunderground v.1.15,2013-07-01 17:56:00,
2013-07-01 14:05:00,73.9,67.0,29.93,SE,142,2.0,2.0,79,0.00,,,0.00,Wunderground v.1.15,2013-07-01 18:05:00,
2013-07-01 14:26:00,74.4,66.7,29.92,SE,129,3.0,4.0,77,0.00,,,0.00,Wunderground v.1.15,2013-07-01 18:26:00,
2013-07-01 14:36:00,74.9,67.9,29.93,SE,140,2.0,2.0,79,0.00,,,0.00,Wunderground v.1.15,2013-07-01 18:36:00,
2013-07-01 14:46:00,76.3,68.6,29.93,SSE,153,0.0,0.0,77,0.00,,,0.00,Wunderground v.1.15,2013-07-01 18:46:00,
2013-07-01 15:06:00,75.4,68.8,29.93,SSE,148,3.0,3.0,80,0.00,,,0.00,Wunderground v.1.15,2013-07-01 19:06:00,
2013-07-01 15:15:00,76.0,68.6,29.93,East,96,1.0,1.0,78,0.00,,,0.00,Wunderground v.1.15,2013-07-01 19:15:00,
2013-07-01 15:26:00,76.3,67.0,29.93,SE,142,2.0,2.0,73,0.00,,,0.00,Wunderground v.1.15,2013-07-01 19:26:00,
2013-07-01 15:36:00,75.8,67.7,29.92,SE,131,2.0,5.0,76,0.00,,,0.00,Wunderground v.1.15,2013-07-01 19:36:00,
2013-07-01 15:46:00,75.3,67.2,29.93,SE,144,2.0,5.0,76,0.00,,,0.00,Wunderground v.1.15,2013-07-01 19:46:00,
2013-07-01 15:56:00,75.4,67.3,29.93,SE,128,2.0,5.0,76,0.00,,,0.00,Wunderground v.1.15,2013-07-01 19:56:00,
2013-07-01 16:06:00,76.0,67.1,29.93,SSE,154,1.0,1.0,74,0.00,,,0.00,Wunderground v.1.15,2013-07-01 20:06:00,
2013-07-01 16:16:00,76.8,66.7,29.93,SE,134,1.0,3.0,71,0.00,,,0.00,Wunderground v.1.15,2013-07-01 20:16:00,
2013-07-01 16:36:00,77.0,67.7,29.92,South,179,0.0,1.0,73,0.00,,,0.00,Wunderground v.1.15,2013-07-01 20:36:00,
2013-07-01 17:06:00,76.5,66.8,29.92,SSE,148,1.0,4.0,72,0.00,,,0.00,Wunderground v.1.15,2013-07-01 21:06:00,
2013-07-01 17:15:00,76.0,67.1,29.93,SSE,148,1.0,4.0,74,0.00,,,0.00,Wunderground v.1.15,2013-07-01 21:15:00,
2013-07-01 17:26:00,75.3,67.6,29.93,SE,128,1.0,3.0,77,0.00,,,0.00,Wunderground v.1.15,2013-07-01 21:26:00,
2013-07-01 18:05:00,72.8,66.3,29.94,SSW,208,2.0,2.0,80,0.00,,,0.00,Wunderground v.1.15,2013-07-01 22:05:00,
2013-07-01 18:15:00,72.7,66.5,29.94,SSE,157,1.0,1.0,81,0.00,,,0.00,Wunderground v.1.15,2013-07-01 22:15:00,
2013-07-01 18:26:00,72.7,66.5,29.94,SSE,157,0.0,0.0,81,0.00,,,0.00,Wunderground v.1.15,2013-07-01 22:26:00,
2013-07-01 19:06:00,72.0,67.6,29.95,SSE,157,0.0,0.0,86,0.00,,,0.00,Wunderground v.1.15,2013-07-01 23:06:00,
2013-07-01 19:16:00,72.0,68.2,29.95,SSE,157,0.0,0.0,88,0.00,,,0.00,Wunderground v.1.15,2013-07-01 23:16:00,
2013-07-01 20:05:00,70.1,67.7,29.96,SSE,157,0.0,0.0,92,0.00,,,0.02,Wunderground v.1.15,2013-07-02 00:05:00,
2013-07-01 20:16:00,69.9,67.8,29.97,SSE,157,0.0,0.0,93,0.00,,,0.02,Wunderground v.1.15,2013-07-02 00:16:00,
2013-07-01 20:26:00,69.8,68.0,29.97,SSE,157,0.0,0.0,94,0.00,,,0.02,Wunderground v.1.15,2013-07-02 00:26:00,
2013-07-01 20:35:00,69.6,67.8,29.97,SSE,157,0.0,1.0,94,0.00,,,0.02,Wunderground v.1.15,2013-07-02 00:35:00,
2013-07-01 20:46:00,69.4,67.6,29.98,SSE,157,1.0,1.0,94,0.00,,,0.03,Wunderground v.1.15,2013-07-02 00:46:00,
2013-07-01 20:56:00,69.3,67.8,29.98,SSE,157,0.0,0.0,95,0.07,,,0.04,Wunderground v.1.15,2013-07-02 00:56:00,
2013-07-01 21:45:00,68.4,67.5,30.00,SE,146,0.0,0.0,97,0.16,,,0.14,Wunderground v.1.15,2013-07-02 01:45:00,
2013-07-01 21:56:00,68.4,67.5,30.00,SE,146,0.0,0.0,97,0.81,,,0.22,Wunderground v.1.15,2013-07-02 01:56:00,
2013-07-01 22:26:00,68.4,67.8,29.99,SSE,147,1.0,1.0,98,0.10,,,0.44,Wunderground v.1.15,2013-07-02 02:26:00,
2013-07-01 22:36:00,68.3,67.7,30.00,SSE,147,1.0,1.0,98,0.07,,,0.46,Wunderground v.1.15,2013-07-02 02:36:00,
2013-07-01 22:46:00,68.4,67.8,30.00,SE,141,2.0,4.0,98,0.06,,,0.46,Wunderground v.1.15,2013-07-02 02:46:00,
2013-07-01 22:56:00,68.3,67.7,30.00,SE,128,3.0,4.0,98,0.06,,,0.47,Wunderground v.1.15,2013-07-02 02:56:00,
2013-07-01 23:05:00,68.3,67.7,29.99,SE,146,1.0,1.0,98,0.09,,,0.48,Wunderground v.1.15,2013-07-02 03:05:00,
2013-07-01 23:36:00,68.3,67.7,29.98,SE,139,1.0,1.0,98,0.00,,,0.50,Wunderground v.1.15,2013-07-02 03:36:00,
2013-07-01 23:45:00,-999.9,-99.9,29.98,North,32767,-999.0,1.0,255,-99.99,,,0.50,Wunderground v.1.15,2013-07-02 03:45:00,